Weather reports worldwide

Advertisment
Reinosa, Spain (8032): temperature & dewpoint: 08.11.2018 13:00:00 - 14.11.2018 13:00:00 (CET)Reinosa, Spain (8032): wind speed & gusts: 08.11.2018 13:00:00 - 14.11.2018 13:00:00 (CET)Reinosa, Spain (8032): wind direction: 08.11.2018 13:00:00 - 14.11.2018 13:00:00 (CET)Reinosa, Spain (8032): precipitation: 08.11.2018 13:00:00 - 14.11.2018 13:00:00 (CET)
Date & Time tt [°C] td [°C] ff [km/h] ff [kn] fx [km/h] fx [kn] dd rr [mm]
14.11.2018 13:00:00 - - - - - - - -
14.11.2018 12:00:00 10,3 6,7 19 10 26 14 SSE 0,0
14.11.2018 11:00:00 8,4 7,3 10 6 17 9 SSE 0,0
14.11.2018 10:00:00 6,3 5,5 1 0 13 7 SSW 0,0
14.11.2018 09:00:00 5,6 4,7 4 2 11 6 WNW 0,0
14.11.2018 08:00:00 5,3 4,4 7 4 13 7 W 0,0
14.11.2018 07:00:00 5,6 4,7 6 3 34 19 WNW -
14.11.2018 06:00:00 5,9 5,0 6 3 9 5 W 0,0
14.11.2018 05:00:00 6,2 5,3 4 2 8 4 W 0,0
14.11.2018 04:00:00 6,2 5,3 4 2 9 5 SW 0,0
14.11.2018 03:00:00 6,4 5,5 6 3 10 5 W 0,0
14.11.2018 02:00:00 6,6 5,7 3 2 10 5 SSW 0,0
14.11.2018 01:00:00 6,8 5,9 5 3 18 10 SSW -
14.11.2018 00:00:00 7,2 6,1 7 4 16 9 SSE 0,0
13.11.2018 23:00:00 7,9 6,8 3 2 26 14 ESE 0,0
13.11.2018 22:00:00 8,3 6,9 20 11 25 13 SSE 0,0
13.11.2018 21:00:00 5,8 4,8 4 2 7 4 NW 0,0
13.11.2018 20:00:00 8,1 6,6 1 1 4 2 WSW 0,0
13.11.2018 19:00:00 8,6 6,4 3 2 5 3 WNW -
13.11.2018 18:00:00 10,5 6,5 3 1 9 5 S 0,0
13.11.2018 17:00:00 12,3 7,8 9 5 13 7 E 0,0
13.11.2018 16:00:00 13,2 7,0 7 4 17 9 E 0,0
13.11.2018 15:00:00 13,1 6,5 8 4 16 9 S 0,0
13.11.2018 14:00:00 12,4 6,5 7 4 19 10 SSE 0,0
13.11.2018 13:00:00 10,8 6,0 12 6 19 10 SSE -
13.11.2018 12:00:00 10,0 6,2 4 2 15 8 SE 0,1
13.11.2018 11:00:00 9,1 5,5 3 2 8 5 S 0,0
13.11.2018 10:00:00 7,6 5,9 3 2 8 4 W 0,0
13.11.2018 09:00:00 6,4 4,7 3 2 6 3 WNW 0,0
13.11.2018 08:00:00 6,3 4,3 3 2 4 2 SE 0,0
13.11.2018 07:00:00 5,9 3,7 0 0 6 3 NW -
13.11.2018 06:00:00 5,7 3,5 4 2 5 3 W 0,0
13.11.2018 05:00:00 5,5 3,4 4 2 13 7 WNW 0,0
13.11.2018 04:00:00 5,7 4,0 6 3 11 6 WNW 0,0
13.11.2018 03:00:00 7,4 6,0 1 1 6 3 SSW 0,0
13.11.2018 02:00:00 7,6 6,1 4 2 8 4 S 0,0
13.11.2018 01:00:00 7,7 6,6 4 2 7 4 SSE -
13.11.2018 00:00:00 7,7 6,6 2 1 9 5 NE 0,0
12.11.2018 23:00:00 7,9 6,8 2 1 7 4 W 0,0
12.11.2018 22:00:00 7,8 6,7 2 1 11 6 NE 0,0
12.11.2018 21:00:00 7,7 6,6 6 3 13 7 ENE 0,0
12.11.2018 20:00:00 8,0 6,9 6 3 10 5 ENE 0,0
12.11.2018 19:00:00 8,3 7,2 3 1 14 7 NE -
12.11.2018 18:00:00 8,4 7,0 10 5 16 9 E 0,0
12.11.2018 17:00:00 9,2 6,6 11 6 16 9 E 0,0
12.11.2018 16:00:00 11,0 4,7 6 3 13 7 SSE 0,0
12.11.2018 15:00:00 11,0 5,1 5 3 19 10 S 0,0
12.11.2018 14:00:00 10,4 5,4 12 7 20 11 S 0,0
12.11.2018 13:00:00 10,2 5,6 11 6 21 11 SSE -
12.11.2018 12:00:00 9,3 7,6 6 3 16 9 NE 0,0
12.11.2018 11:00:00 8,8 7,7 8 5 12 6 E 0,0
12.11.2018 10:00:00 8,0 7,3 3 1 12 7 NNE 0,0
12.11.2018 09:00:00 7,0 6,3 6 3 9 5 ESE 0,0
12.11.2018 08:00:00 6,8 6,1 4 2 15 8 ENE 0,0
12.11.2018 07:00:00 7,4 6,2 10 5 13 7 E -
12.11.2018 06:00:00 7,9 6,5 3 2 11 6 E 0,0
12.11.2018 05:00:00 7,5 6,4 4 2 11 6 E 0,2
12.11.2018 04:00:00 7,5 6,3 6 4 13 7 NE 0,1
12.11.2018 03:00:00 7,2 5,7 2 1 16 9 E 0,0
12.11.2018 02:00:00 8,1 4,9 9 5 35 19 S 0,1
12.11.2018 01:00:00 8,7 5,1 16 9 32 17 SW -
12.11.2018 00:00:00 8,9 6,0 16 8 29 16 WSW 1,1
11.11.2018 23:00:00 8,1 7,0 7 4 18 10 SSE 1,1
11.11.2018 22:00:00 8,5 7,4 9 5 18 10 SE 0,4
11.11.2018 21:00:00 8,8 7,9 10 5 17 9 E 0,4
11.11.2018 20:00:00 9,7 8,1 10 6 18 10 SSE 0,3
11.11.2018 19:00:00 10,2 8,5 10 5 57 31 WSW -
11.11.2018 18:00:00 11,1 8,5 35 19 61 33 SSW 0,6
11.11.2018 17:00:00 10,8 8,7 22 12 44 24 S 1,4
11.11.2018 16:00:00 10,8 9,1 22 12 69 37 SSW 2,2
11.11.2018 15:00:00 10,6 8,9 34 19 61 33 S 2,7
11.11.2018 14:00:00 10,8 9,4 29 16 56 31 SSW 1,7
11.11.2018 13:00:00 10,9 8,8 31 17 67 36 SSW -
11.11.2018 12:00:00 10,7 8,5 34 18 64 35 SSW 0,1
11.11.2018 11:00:00 10,8 8,2 36 19 71 38 SSW 0,0
11.11.2018 10:00:00 10,3 8,1 30 16 69 37 SSW 0,1
11.11.2018 09:00:00 10,1 7,9 41 22 78 42 SSW 0,1
11.11.2018 08:00:00 10,2 7,3 29 16 61 33 SW 0,0
11.11.2018 07:00:00 10,1 7,2 24 13 62 34 SW -
11.11.2018 06:00:00 10,2 5,8 34 18 68 37 SW 0,0
11.11.2018 05:00:00 9,8 6,2 26 14 62 34 SW 0,0
11.11.2018 04:00:00 9,7 6,8 34 18 61 33 SW 0,0
11.11.2018 03:00:00 9,9 5,5 28 15 59 32 SW 0,0
11.11.2018 02:00:00 9,8 5,8 25 14 54 29 SW 0,0
11.11.2018 01:00:00 9,9 5,5 16 9 39 21 WSW -
11.11.2018 00:00:00 9,6 5,2 14 7 37 20 SW 0,0
10.11.2018 23:00:00 9,9 4,5 11 6 33 18 SW 0,0
10.11.2018 22:00:00 10,2 3,7 17 9 38 21 SE 0,0
10.11.2018 21:00:00 10,4 1,8 10 6 29 16 ESE 0,0
10.11.2018 20:00:00 11,3 1,6 6 3 25 14 SSW 0,0
10.11.2018 19:00:00 10,8 4,7 5 3 34 18 E -
10.11.2018 18:00:00 11,5 6,6 16 9 28 15 SE 0,0
10.11.2018 17:00:00 12,5 6,3 12 7 40 21 SW 0,1
10.11.2018 16:00:00 11,8 8,1 23 12 43 23 WSW 0,5
10.11.2018 15:00:00 12,7 6,5 13 7 30 16 SSW 0,0
10.11.2018 14:00:00 12,5 5,2 18 10 52 28 S 0,0
10.11.2018 13:00:00 15,7 2,5 17 9 40 22 SW -
10.11.2018 12:00:00 14,8 1,0 21 11 44 24 SW 0,0
10.11.2018 11:00:00 14,1 1,4 18 10 59 32 SW 0,0
10.11.2018 10:00:00 13,6 2,8 26 14 57 31 W 0,0
10.11.2018 09:00:00 12,1 7,4 27 15 70 38 WSW 0,0
10.11.2018 08:00:00 10,4 8,0 29 16 71 39 SW 0,0
10.11.2018 07:00:00 10,4 8,2 36 19 70 38 SW -
10.11.2018 06:00:00 10,2 8,0 34 19 65 35 SW 0,3
10.11.2018 05:00:00 9,9 7,3 24 13 57 31 SW 0,1
10.11.2018 04:00:00 10,0 7,6 21 12 56 30 SSW 0,3
10.11.2018 03:00:00 10,1 7,7 21 11 51 28 SSW 0,4
10.11.2018 02:00:00 9,6 7,7 12 6 44 24 S 0,2
10.11.2018 01:00:00 9,0 7,6 11 6 39 21 S -
10.11.2018 00:00:00 9,0 7,0 21 11 50 27 SW 0,0
09.11.2018 23:00:00 8,7 6,3 28 15 51 27 WSW 0,0
09.11.2018 22:00:00 9,0 5,4 6 3 37 20 WSW 0,0
09.11.2018 21:00:00 8,8 5,2 5 3 36 20 NNE 0,0
09.11.2018 20:00:00 8,4 4,8 7 4 47 25 W 0,0
09.11.2018 19:00:00 8,1 4,5 16 9 37 20 SSW -
09.11.2018 18:00:00 8,0 4,0 21 11 46 25 SSW 0,0
09.11.2018 17:00:00 8,2 2,0 28 15 61 33 SW 0,0
09.11.2018 16:00:00 8,3 1,5 17 9 60 32 SW 0,0
09.11.2018 15:00:00 8,6 1,1 27 15 51 27 SW 0,0
09.11.2018 14:00:00 9,9 0,5 25 14 54 29 SW 0,0
09.11.2018 13:00:00 8,9 0,4 28 15 54 29 SW -
09.11.2018 12:00:00 7,1 0,8 16 9 35 19 SSW 0,0
09.11.2018 11:00:00 4,3 1,8 21 12 36 20 SE 0,0
09.11.2018 10:00:00 4,3 1,7 9 5 25 13 SSE 0,0
09.11.2018 09:00:00 2,8 1,6 3 2 17 9 WSW 0,0
09.11.2018 08:00:00 1,1 0,0 2 1 11 6 W 0,0
09.11.2018 07:00:00 2,4 1,2 4 2 11 6 S -
09.11.2018 06:00:00 3,6 2,4 6 3 11 6 S 0,0
09.11.2018 05:00:00 2,9 1,9 5 3 10 6 S 0,0
09.11.2018 04:00:00 2,6 1,1 6 3 11 6 SSW 0,0
09.11.2018 03:00:00 3,8 1,8 3 2 8 4 SW 0,0
09.11.2018 02:00:00 4,5 2,2 1 0 18 10 SE 0,1
09.11.2018 01:00:00 6,2 2,7 9 5 22 12 SSW -
09.11.2018 00:00:00 6,4 3,9 8 5 27 15 SSW 0,0
08.11.2018 23:00:00 7,5 4,1 15 8 31 17 S 0,0
08.11.2018 22:00:00 7,0 3,4 9 5 27 15 S 0,0
08.11.2018 21:00:00 8,1 3,4 15 8 32 17 SW 0,0
08.11.2018 20:00:00 8,1 4,1 8 4 38 20 SW 0,0
08.11.2018 19:00:00 8,0 4,4 21 11 53 29 SSW -
08.11.2018 18:00:00 8,2 5,5 25 14 69 38 SW 0,9
08.11.2018 17:00:00 9,0 4,6 35 19 66 36 SSW 0,0
08.11.2018 16:00:00 9,5 3,9 33 18 77 42 SSW 0,0
08.11.2018 15:00:00 9,9 4,3 36 19 81 44 SSW 0,1
08.11.2018 14:00:00 8,5 4,7 20 11 78 42 S 0,1
08.11.2018 13:00:00 8,0 4,2 33 18 89 48 SSW -

tt = temperature
td = dewpoint
ff = wind speed
fx = gusts
dd = wind direction
rr = precipitation

Next stations